Time;durP1;ratioP1;P1;durP2;ratioP2;P2;SDS_P1;SDS_P2;PMS_P1;PMS_P2;Temp;Humidity;BMP_temperature;BMP_pressure;BME280_temperature;BME280_humidity;BME280_pressure;Samples;Min_cycle;Max_cycle;Signal;HPM_P1;HPM_P2
2023/09/23 00:00:55;;;;;;;0.60;0.60;;;18.50;59.20;;;;;;5174455;27;20018;-67
2023/09/23 00:03:23;;;;;;;0.30;0.30;;;18.50;59.10;;;;;;5175208;27;20039;-67
2023/09/23 00:05:49;;;;;;;0.40;0.40;;;18.60;59.00;;;;;;5174718;27;20023;-68
2023/09/23 00:08:18;;;;;;;0.50;0.50;;;18.60;58.90;;;;;;5175181;27;20030;-68
2023/09/23 00:10:44;;;;;;;0.60;0.60;;;18.60;58.90;;;;;;5174913;27;20022;-67
2023/09/23 00:13:10;;;;;;;0.55;0.55;;;18.50;58.80;;;;;;5174851;27;20026;-67
2023/09/23 00:15:39;;;;;;;0.40;0.40;;;18.50;58.80;;;;;;5173816;27;20466;-67
2023/09/23 00:18:06;;;;;;;;;;;18.50;58.90;;;;;;5174807;27;20034;-68
2023/09/23 00:20:32;;;;;;;0.40;0.40;;;18.40;59.30;;;;;;5178239;27;19915;-68
2023/09/23 00:22:58;;;;;;;0.50;0.50;;;18.30;60.00;;;;;;5178266;27;20032;-68
2023/09/23 00:25:24;;;;;;;0.40;0.40;;;18.20;60.40;;;;;;5178378;27;20010;-67
2023/09/23 00:27:53;;;;;;;0.60;0.60;;;18.00;60.80;;;;;;5178704;27;20026;-67
2023/09/23 00:30:20;;;;;;;0.35;0.35;;;18.00;60.90;;;;;;5178792;27;20070;-68
2023/09/23 00:32:46;;;;;;;0.40;0.40;;;18.00;61.20;;;;;;5178732;27;20390;-68
2023/09/23 00:35:12;;;;;;;0.40;0.40;;;17.90;61.40;;;;;;5178999;27;20029;-68
2023/09/23 00:37:40;;;;;;;0.40;0.40;;;17.90;61.40;;;;;;5164972;27;20043;-67
2023/09/23 00:40:13;;;;;;;0.77;0.63;;;17.80;61.60;;;;;;5157184;27;20383;-67
2023/09/23 00:42:38;;;;;;;2.00;1.30;;;17.90;61.80;;;;;;5157236;27;20038;-67
2023/09/23 00:45:06;;;;;;;0.88;0.77;;;17.80;61.50;;;;;;5156990;27;20018;-68
2023/09/23 00:47:32;;;;;;;0.70;0.70;;;17.80;61.50;;;;;;5155772;27;20062;-68
2023/09/23 00:49:57;;;;;;;0.80;0.80;;;17.80;61.60;;;;;;5157323;27;20415;-69
2023/09/23 00:52:23;;;;;;;0.50;0.50;;;17.80;61.50;;;;;;5157416;27;20046;-67
2023/09/23 00:54:49;;;;;;;1.23;0.73;;;17.80;61.50;;;;;;5157159;27;20031;-67
2023/09/23 00:57:17;;;;;;;0.85;0.80;;;17.90;61.40;;;;;;5157217;27;20038;-68
2023/09/23 00:59:43;;;;;;;0.50;0.50;;;17.80;61.40;;;;;;5157148;27;20026;-66
2023/09/23 01:02:12;;;;;;;0.40;0.40;;;17.80;61.50;;;;;;5157308;27;20027;-67
2023/09/23 01:04:38;;;;;;;0.40;0.40;;;17.90;61.40;;;;;;5157098;27;20019;-67
2023/09/23 01:07:04;;;;;;;0.32;0.32;;;17.90;61.20;;;;;;5156479;27;20015;-67
2023/09/23 01:09:33;;;;;;;0.82;0.82;;;17.90;61.00;;;;;;5156918;27;20026;-67
2023/09/23 01:12:00;;;;;;;0.80;0.80;;;17.90;61.20;;;;;;5158435;27;20049;-68
2023/09/23 01:14:25;;;;;;;0.40;0.40;;;17.90;61.00;;;;;;5178292;27;20416;-68
2023/09/23 01:16:52;;;;;;;0.50;0.50;;;17.90;60.80;;;;;;5177505;27;20030;-66
2023/09/23 01:19:25;;;;;;;0.55;0.55;;;17.90;60.50;;;;;;5177447;27;20143;-67
2023/09/23 01:21:50;;;;;;;1.02;1.02;;;17.80;60.50;;;;;;5177183;27;20069;-68
2023/09/23 01:24:19;;;;;;;1.08;1.08;;;17.80;60.30;;;;;;5177997;27;20030;-67
2023/09/23 01:26:52;;;;;;;1.10;1.00;;;17.80;60.40;;;;;;5178088;27;20018;-67
2023/09/23 01:29:26;;;;;;;0.47;0.47;;;17.80;60.50;;;;;;5177603;27;20519;-67
2023/09/23 01:32:28;;;;;;;0.90;0.90;;;17.80;60.40;;;;;;5177602;27;20026;-67
2023/09/23 01:34:54;;;;;;;4.85;1.45;;;17.80;60.50;;;;;;5177575;27;20029;-67
2023/09/23 01:37:21;;;;;;;1.77;1.67;;;17.80;60.50;;;;;;5167332;27;20095;-67
2023/09/23 01:39:47;;;;;;;0.55;0.55;;;17.90;60.40;;;;;;5156736;27;20079;-67
2023/09/23 01:42:13;;;;;;;0.70;0.70;;;17.80;60.30;;;;;;5156321;27;20019;-68
2023/09/23 01:44:40;;;;;;;0.43;0.43;;;17.90;60.10;;;;;;5156554;27;20033;-68
2023/09/23 01:47:05;;;;;;;0.65;0.65;;;17.80;60.20;;;;;;5155054;27;20382;-68
2023/09/23 01:49:31;;;;;;;0.50;0.50;;;17.80;60.20;;;;;;5156661;27;20065;-67
2023/09/23 01:51:57;;;;;;;0.45;0.45;;;17.80;60.20;;;;;;5156591;27;20031;-66
2023/09/23 01:54:22;;;;;;;0.52;0.52;;;17.80;60.40;;;;;;5156311;27;20030;-67
2023/09/23 01:56:48;;;;;;;1.17;1.02;;;17.80;60.50;;;;;;5155464;27;20102;-67
2023/09/23 01:59:14;;;;;;;0.60;0.60;;;17.70;60.80;;;;;;5154399;27;20130;-68
2023/09/23 02:01:40;;;;;;;0.95;0.95;;;17.60;61.20;;;;;;5154985;27;20069;-66
2023/09/23 02:04:09;;;;;;;1.85;1.42;;;17.50;61.80;;;;;;5155660;27;20019;-66
2023/09/23 02:06:40;;;;;;;0.40;0.40;;;17.30;63.10;;;;;;5155235;27;20033;-66
2023/09/23 02:09:09;;;;;;;0.60;0.60;;;17.30;64.10;;;;;;5155544;27;20079;-66
2023/09/23 02:11:37;;;;;;;0.50;0.50;;;17.30;64.70;;;;;;5154787;27;20387;-65
2023/09/23 02:14:04;;;;;;;0.40;0.40;;;17.20;65.20;;;;;;5155331;27;20073;-67
2023/09/23 02:16:30;;;;;;;0.60;0.60;;;17.20;65.70;;;;;;5154854;27;20487;-67
2023/09/23 02:18:56;;;;;;;0.60;0.60;;;17.10;66.00;;;;;;5155008;27;20137;-66
2023/09/23 02:21:21;;;;;;;0.73;0.68;;;17.10;66.30;;;;;;5160631;27;20386;-66
2023/09/23 02:23:47;;;;;;;0.68;0.68;;;17.10;66.50;;;;;;5175699;27;20025;-68
2023/09/23 02:26:12;;;;;;;0.90;0.90;;;17.10;66.70;;;;;;5175818;27;20026;-68
2023/09/23 02:28:38;;;;;;;1.30;1.20;;;17.10;66.80;;;;;;5174160;27;20030;-67
2023/09/23 02:31:04;;;;;;;0.60;0.60;;;17.10;66.90;;;;;;5175263;27;20105;-68
2023/09/23 02:33:30;;;;;;;0.68;0.68;;;17.10;67.20;;;;;;5175502;27;20042;-67
2023/09/23 02:36:00;;;;;;;0.38;0.38;;;17.10;67.30;;;;;;5175194;27;20038;-67
2023/09/23 02:38:26;;;;;;;0.90;0.68;;;17.10;67.40;;;;;;5155400;27;20391;-66
2023/09/23 02:40:52;;;;;;;0.50;0.50;;;17.10;67.50;;;;;;5153634;27;20023;-67
2023/09/23 02:43:19;;;;;;;0.50;0.50;;;17.20;67.50;;;;;;5154505;27;20026;-68
2023/09/23 02:45:49;;;;;;;0.55;0.55;;;17.20;67.50;;;;;;5154350;27;20046;-67
2023/09/23 02:48:14;;;;;;;0.40;0.40;;;17.20;67.40;;;;;;5154463;27;20027;-66
2023/09/23 02:50:40;;;;;;;1.05;0.95;;;17.10;67.60;;;;;;5154121;27;20357;-66
2023/09/23 02:53:07;;;;;;;0.75;0.75;;;17.10;67.60;;;;;;5154125;27;20109;-66
2023/09/23 02:55:33;;;;;;;0.60;0.60;;;17.10;67.70;;;;;;5153837;27;20033;-66
2023/09/23 02:57:58;;;;;;;0.60;0.60;;;17.10;67.70;;;;;;5154056;27;20039;-66
2023/09/23 03:00:29;;;;;;;4.68;1.55;;;17.10;67.80;;;;;;5153703;27;20467;-66
2023/09/23 03:02:57;;;;;;;0.50;0.50;;;17.10;67.70;;;;;;5153925;27;20396;-66
2023/09/23 03:05:28;;;;;;;0.40;0.40;;;17.10;67.90;;;;;;5154047;27;20027;-67
2023/09/23 03:07:57;;;;;;;1.38;1.27;;;17.10;67.90;;;;;;5152120;27;20480;-66
2023/09/23 03:10:39;;;;;;;0.50;0.50;;;17.10;67.90;;;;;;5153999;27;20019;-66
2023/09/23 03:13:11;;;;;;;1.10;1.08;;;17.10;68.00;;;;;;5153771;27;20075;-66
2023/09/23 03:15:58;;;;;;;0.90;0.88;;;17.10;68.10;;;;;;5153327;27;20018;-67
2023/09/23 03:18:33;;;;;;;0.50;0.50;;;17.10;68.10;;;;;;5154022;27;20039;-67
2023/09/23 03:21:08;;;;;;;0.57;0.57;;;17.10;68.10;;;;;;5156121;27;20527;-67
2023/09/23 03:23:35;;;;;;;0.80;0.80;;;17.20;68.10;;;;;;5174573;27;20471;-66
2023/09/23 03:26:01;;;;;;;0.63;0.63;;;17.20;68.20;;;;;;5174194;27;20015;-66
2023/09/23 03:28:26;;;;;;;0.40;0.40;;;17.20;67.90;;;;;;5174900;27;20409;-67
2023/09/23 03:30:59;;;;;;;0.82;0.82;;;17.20;67.90;;;;;;5172825;27;20082;-67
2023/09/23 03:33:25;;;;;;;0.70;0.70;;;17.10;68.10;;;;;;5174800;27;20023;-67
2023/09/23 03:35:50;;;;;;;0.60;0.60;;;17.10;67.90;;;;;;5173991;27;20019;-67
2023/09/23 03:38:16;;;;;;;0.73;0.73;;;17.20;67.90;;;;;;5155612;27;20484;-67
2023/09/23 03:40:50;;;;;;;0.93;0.93;;;17.10;67.70;;;;;;5152968;27;20046;-67
2023/09/23 03:43:15;;;;;;;0.63;0.63;;;17.10;67.70;;;;;;5153473;27;20489;-67
2023/09/23 03:45:41;;;;;;;0.52;0.52;;;17.00;67.70;;;;;;5152847;27;20027;-67
2023/09/23 03:48:06;;;;;;;0.60;0.60;;;17.00;67.70;;;;;;5152943;27;20034;-67
2023/09/23 03:50:35;;;;;;;0.75;0.75;;;17.00;67.50;;;;;;5153117;27;20479;-67
2023/09/23 03:53:00;;;;;;;0.60;0.60;;;17.00;67.40;;;;;;5152456;27;20083;-66
2023/09/23 03:55:26;;;;;;;0.50;0.50;;;16.80;67.30;;;;;;5152979;27;20018;-67
2023/09/23 03:57:53;;;;;;;3.70;1.00;;;16.80;67.10;;;;;;5151364;27;20387;-66
2023/09/23 04:00:19;;;;;;;0.82;0.82;;;16.70;67.20;;;;;;5152813;27;20029;-68
2023/09/23 04:02:47;;;;;;;0.82;0.82;;;16.70;67.50;;;;;;5163205;27;20022;-67
2023/09/23 04:05:16;;;;;;;0.40;0.40;;;16.70;67.60;;;;;;5172493;27;20110;-67
2023/09/23 04:07:49;;;;;;;0.40;0.40;;;16.60;67.60;;;;;;5172058;27;20475;-67
2023/09/23 04:10:27;;;;;;;0.63;0.63;;;16.60;67.40;;;;;;5173717;27;20071;-68
2023/09/23 04:12:54;;;;;;;0.50;0.50;;;16.50;67.30;;;;;;5172647;27;20022;-67
2023/09/23 04:15:26;;;;;;;0.85;0.85;;;16.40;67.20;;;;;;5173355;27;20025;-67
2023/09/23 04:17:52;;;;;;;0.60;0.60;;;16.40;67.20;;;;;;5173612;27;20411;-67
2023/09/23 04:20:18;;;;;;;0.60;0.60;;;16.30;67.30;;;;;;5173439;27;20037;-68
2023/09/23 04:22:46;;;;;;;0.85;0.85;;;16.20;67.10;;;;;;5173434;27;20035;-67
2023/09/23 04:25:13;;;;;;;0.60;0.60;;;16.20;67.50;;;;;;5173369;27;20427;-67
2023/09/23 04:27:39;;;;;;;0.63;0.63;;;16.20;68.10;;;;;;5173487;27;20023;-68
2023/09/23 04:30:11;;;;;;;1.33;1.23;;;16.20;68.40;;;;;;5173410;27;20037;-68
2023/09/23 04:32:41;;;;;;;0.90;0.90;;;16.30;68.70;;;;;;5173791;27;20041;-68
2023/09/23 04:35:07;;;;;;;0.90;0.90;;;16.30;68.70;;;;;;5173568;27;20041;-68
2023/09/23 04:37:37;;;;;;;0.68;0.68;;;16.30;68.50;;;;;;5161329;27;20038;-67
2023/09/23 04:40:06;;;;;;;0.90;0.90;;;16.40;68.50;;;;;;5152593;27;20029;-66
2023/09/23 04:42:31;;;;;;;0.68;0.68;;;16.40;68.40;;;;;;5152317;27;20027;-68
2023/09/23 04:44:58;;;;;;;0.47;0.47;;;16.40;68.60;;;;;;5152023;27;20095;-67
2023/09/23 04:47:23;;;;;;;0.50;0.50;;;16.40;68.70;;;;;;5152183;27;20099;-67
2023/09/23 04:49:49;;;;;;;1.02;0.98;;;16.40;68.90;;;;;;5152189;27;20027;-68
2023/09/23 04:52:15;;;;;;;0.60;0.60;;;16.50;68.80;;;;;;5152369;27;20041;-68
2023/09/23 04:54:40;;;;;;;1.05;1.02;;;16.50;68.60;;;;;;5152456;27;20030;-67
2023/09/23 04:57:06;;;;;;;0.93;0.93;;;16.50;68.60;;;;;;5152513;27;20476;-67
2023/09/23 04:59:32;;;;;;;1.48;1.15;;;16.50;68.30;;;;;;5152170;27;20030;-67
2023/09/23 05:01:59;;;;;;;0.60;0.60;;;16.50;68.30;;;;;;5151972;27;20068;-67
2023/09/23 05:04:24;;;;;;;0.70;0.70;;;16.50;68.60;;;;;;5153258;27;20023;-67
2023/09/23 05:06:50;;;;;;;3.10;0.90;;;16.50;68.70;;;;;;5155995;27;20019;-68
2023/09/23 05:09:16;;;;;;;0.88;0.88;;;16.50;68.80;;;;;;5156187;27;20027;-68
2023/09/23 05:11:42;;;;;;;0.47;0.47;;;16.60;68.70;;;;;;5156430;27;20026;-68
2023/09/23 05:14:07;;;;;;;0.90;0.90;;;16.70;68.70;;;;;;5156519;27;20041;-68
2023/09/23 05:16:33;;;;;;;0.63;0.63;;;16.70;68.60;;;;;;5155935;27;20043;-68
2023/09/23 05:18:59;;;;;;;0.70;0.70;;;16.70;68.50;;;;;;5156246;27;20375;-69
2023/09/23 05:21:24;;;;;;;1.25;1.15;;;16.70;68.70;;;;;;5162437;27;20018;-68
2023/09/23 05:23:51;;;;;;;0.80;0.80;;;16.70;68.80;;;;;;5177727;27;20467;-68
2023/09/23 05:26:16;;;;;;;1.27;1.13;;;16.80;68.40;;;;;;5177097;27;20024;-67
2023/09/23 05:28:45;;;;;;;0.43;0.43;;;16.80;68.40;;;;;;5176994;27;20026;-67
2023/09/23 05:31:13;;;;;;;2.50;1.95;;;16.80;68.60;;;;;;5176916;27;20018;-68
2023/09/23 05:33:40;;;;;;;1.30;1.17;;;16.80;68.40;;;;;;5177102;27;20679;-67
2023/09/23 05:36:06;;;;;;;0.75;0.75;;;16.90;68.50;;;;;;5176657;27;20050;-68
2023/09/23 05:38:36;;;;;;;0.52;0.52;;;16.90;68.50;;;;;;5156294;27;20459;-68
2023/09/23 05:41:04;;;;;;;0.65;0.65;;;16.90;68.30;;;;;;5155622;27;20498;-68
2023/09/23 05:43:30;;;;;;;1.13;1.02;;;17.00;68.40;;;;;;5156051;27;20487;-68
2023/09/23 05:45:55;;;;;;;0.40;0.40;;;17.00;68.60;;;;;;5155424;27;20034;-68
2023/09/23 05:48:21;;;;;;;0.52;0.52;;;17.00;68.60;;;;;;5156319;27;20117;-67
2023/09/23 05:50:48;;;;;;;1.15;1.05;;;17.10;68.60;;;;;;5155210;27;20452;-68
2023/09/23 05:53:13;;;;;;;0.65;0.65;;;17.10;68.60;;;;;;5155859;27;20039;-68
2023/09/23 05:55:39;;;;;;;0.60;0.60;;;17.10;68.70;;;;;;5155631;27;20091;-67
2023/09/23 05:58:04;;;;;;;1.00;1.00;;;17.10;68.50;;;;;;5155832;27;20083;-67
2023/09/23 06:00:30;;;;;;;0.70;0.70;;;17.10;68.60;;;;;;5155304;27;20060;-68
2023/09/23 06:02:55;;;;;;;2.85;1.25;;;17.20;68.40;;;;;;5155344;27;20084;-68
2023/09/23 06:05:22;;;;;;;0.63;0.63;;;17.20;68.50;;;;;;5155670;27;20097;-68
2023/09/23 06:07:48;;;;;;;0.60;0.60;;;17.20;68.50;;;;;;5155319;27;20035;-69
2023/09/23 06:10:15;;;;;;;0.98;0.90;;;17.30;68.50;;;;;;5155572;27;20106;-68
2023/09/23 06:12:40;;;;;;;0.40;0.40;;;17.30;68.50;;;;;;5155395;27;20030;-67
2023/09/23 06:15:08;;;;;;;1.48;1.30;;;17.30;68.70;;;;;;5155017;27;20038;-68
2023/09/23 06:17:36;;;;;;;1.95;1.63;;;17.40;68.30;;;;;;5154133;27;20551;-67
2023/09/23 06:20:03;;;;;;;0.80;0.80;;;17.40;68.50;;;;;;5154968;27;20026;-67
2023/09/23 06:22:28;;;;;;;0.47;0.47;;;17.40;68.40;;;;;;5170968;27;20022;-68
2023/09/23 06:24:54;;;;;;;0.65;0.65;;;17.50;68.50;;;;;;5175732;27;20051;-68
2023/09/23 06:27:20;;;;;;;0.57;0.57;;;17.60;68.80;;;;;;5175970;27;20128;-67
2023/09/23 06:29:46;;;;;;;0.70;0.70;;;17.70;68.50;;;;;;5175654;27;20022;-68
2023/09/23 06:32:12;;;;;;;1.20;1.10;;;17.80;68.60;;;;;;5175568;27;20038;-67
2023/09/23 06:34:38;;;;;;;1.40;1.30;;;17.80;68.80;;;;;;5175947;27;20033;-67
2023/09/23 06:37:04;;;;;;;0.50;0.50;;;17.90;68.70;;;;;;5167513;27;20375;-68
2023/09/23 06:39:29;;;;;;;0.70;0.70;;;18.00;68.70;;;;;;5154993;27;20105;-67
2023/09/23 06:41:55;;;;;;;0.50;0.50;;;18.10;68.80;;;;;;5154424;27;20027;-67
2023/09/23 06:44:21;;;;;;;0.65;0.65;;;18.20;68.90;;;;;;5154855;27;20025;-67
2023/09/23 06:46:47;;;;;;;0.93;0.88;;;18.20;69.00;;;;;;5154324;27;20030;-67
2023/09/23 06:49:12;;;;;;;0.63;0.63;;;18.30;68.80;;;;;;5154884;27;20031;-67
2023/09/23 06:51:38;;;;;;;0.40;0.40;;;18.30;68.60;;;;;;5154610;27;20066;-67
2023/09/23 06:54:04;;;;;;;1.13;1.10;;;18.40;68.00;;;;;;5155015;27;20053;-68
2023/09/23 06:56:30;;;;;;;0.60;0.60;;;18.30;68.00;;;;;;5154636;27;20031;-68
2023/09/23 06:58:56;;;;;;;0.40;0.40;;;18.40;67.70;;;;;;5155345;27;20039;-69
2023/09/23 07:01:21;;;;;;;0.60;0.60;;;18.30;67.90;;;;;;5154468;27;20029;-68
2023/09/23 07:03:47;;;;;;;0.57;0.57;;;18.40;67.80;;;;;;5154565;27;20027;-69
2023/09/23 07:06:13;;;;;;;0.70;0.70;;;18.30;67.20;;;;;;5154425;27;20094;-69
2023/09/23 07:08:38;;;;;;;0.40;0.40;;;18.30;67.30;;;;;;5155355;27;20030;-68
2023/09/23 07:11:10;;;;;;;0.90;0.90;;;18.40;67.30;;;;;;5154821;27;20069;-68
2023/09/23 07:13:35;;;;;;;0.50;0.50;;;18.40;67.20;;;;;;5155722;27;20061;-67
2023/09/23 07:16:01;;;;;;;0.60;0.60;;;18.40;66.70;;;;;;5154470;27;20031;-66
2023/09/23 07:18:26;;;;;;;0.50;0.50;;;18.40;66.60;;;;;;5155341;27;20083;-67
2023/09/23 07:20:56;;;;;;;0.80;0.80;;;18.50;65.60;;;;;;5156619;27;20027;-67
2023/09/23 07:23:22;;;;;;;0.70;0.70;;;18.50;65.90;;;;;;5175768;27;20466;-67
2023/09/23 07:25:47;;;;;;;0.80;0.80;;;18.60;66.60;;;;;;5175701;27;20041;-68
2023/09/23 07:28:13;;;;;;;1.08;0.80;;;18.70;66.30;;;;;;5175588;27;20030;-69
2023/09/23 07:30:38;;;;;;;0.75;0.75;;;18.90;65.90;;;;;;5176186;27;20036;-68
2023/09/23 07:33:04;;;;;;;13.32;2.42;;;19.10;65.40;;;;;;5176019;27;20030;-67
2023/09/23 07:35:33;;;;;;;1.50;1.15;;;19.10;64.90;;;;;;5176349;27;20053;-68
2023/09/23 07:38:00;;;;;;;0.50;0.50;;;19.20;64.90;;;;;;5159782;27;20050;-68
2023/09/23 07:40:27;;;;;;;0.50;0.50;;;19.20;64.30;;;;;;5153748;27;20027;-68
2023/09/23 07:42:53;;;;;;;1.48;0.80;;;19.20;64.00;;;;;;5154601;27;20034;-68
2023/09/23 07:45:18;;;;;;;1.42;0.90;;;19.30;63.80;;;;;;5154745;27;20031;-69
2023/09/23 07:47:44;;;;;;;0.73;0.73;;;19.30;63.10;;;;;;5155553;27;20035;-66
2023/09/23 07:50:09;;;;;;;1.23;1.10;;;19.40;63.10;;;;;;5154966;27;20061;-69
2023/09/23 07:52:35;;;;;;;5.25;1.95;;;19.40;63.00;;;;;;5155559;27;20042;-69
2023/09/23 07:55:02;;;;;;;1.33;1.23;;;19.40;63.00;;;;;;5155871;27;20019;-68
2023/09/23 07:57:27;;;;;;;0.98;0.98;;;19.50;63.30;;;;;;5155499;27;20027;-68
2023/09/23 07:59:53;;;;;;;1.38;1.15;;;19.70;62.50;;;;;;5155509;27;20495;-67
2023/09/23 08:02:18;;;;;;;0.52;0.52;;;19.80;63.50;;;;;;5156221;27;20212;-68
2023/09/23 08:04:44;;;;;;;0.85;0.85;;;20.20;64.70;;;;;;5155578;27;20022;-69
2023/09/23 08:07:11;;;;;;;0.70;0.70;;;20.70;67.00;;;;;;5154817;27;20023;-69
2023/09/23 08:09:37;;;;;;;0.73;0.73;;;21.30;67.30;;;;;;5155478;27;20018;-69
2023/09/23 08:12:03;;;;;;;0.80;0.80;;;21.90;68.20;;;;;;5155175;27;20021;-68
2023/09/23 08:14:28;;;;;;;0.65;0.65;;;22.60;66.60;;;;;;5155412;27;20019;-69
2023/09/23 08:16:54;;;;;;;0.80;0.80;;;23.20;67.40;;;;;;5155512;27;20027;-68
2023/09/23 08:19:19;;;;;;;1.45;1.05;;;23.80;66.20;;;;;;5154190;27;20019;-68
2023/09/23 08:21:45;;;;;;;1.70;1.42;;;24.20;61.70;;;;;;5164696;27;20026;-67
2023/09/23 08:24:11;;;;;;;0.80;0.80;;;24.60;60.20;;;;;;5176119;27;20029;-67
2023/09/23 08:26:37;;;;;;;0.90;0.90;;;24.90;55.60;;;;;;5174132;27;20138;-68
2023/09/23 08:29:03;;;;;;;0.52;0.52;;;25.30;55.60;;;;;;5175428;27;20074;-68
2023/09/23 08:31:28;;;;;;;0.60;0.60;;;25.50;53.40;;;;;;5175322;27;20026;-69
2023/09/23 08:33:57;;;;;;;2.28;1.35;;;25.80;52.70;;;;;;5176517;27;20046;-67
2023/09/23 08:36:22;;;;;;;0.70;0.70;;;26.10;52.50;;;;;;5173976;27;20088;-69
2023/09/23 08:38:51;;;;;;;0.70;0.70;;;26.30;50.40;;;;;;5156080;27;20058;-69
2023/09/23 08:41:21;;;;;;;1.30;0.75;;;26.60;47.50;;;;;;5161216;27;20475;-69
2023/09/23 08:43:50;;;;;;;0.40;0.40;;;26.40;45.10;;;;;;5168466;27;20029;-70
2023/09/23 08:46:18;;;;;;;0.60;0.60;;;26.30;45.90;;;;;;5182068;27;20026;-68
2023/09/23 08:48:44;;;;;;;0.60;0.60;;;26.30;46.20;;;;;;5183692;27;20034;-68
2023/09/23 08:51:12;;;;;;;0.63;0.63;;;26.30;45.80;;;;;;5184470;27;20015;-69
2023/09/23 08:53:39;;;;;;;1.00;1.00;;;26.30;44.40;;;;;;5183051;27;20053;-69
2023/09/23 08:56:08;;;;;;;0.60;0.60;;;26.20;44.70;;;;;;5183241;27;20118;-69
2023/09/23 08:58:34;;;;;;;0.60;0.60;;;26.10;45.60;;;;;;5180098;27;20026;-69
2023/09/23 09:01:00;;;;;;;0.82;0.82;;;26.20;45.30;;;;;;5172804;27;20447;-67
2023/09/23 09:03:26;;;;;;;1.05;1.05;;;26.30;43.90;;;;;;5168605;27;20030;-68
2023/09/23 09:05:52;;;;;;;0.40;0.40;;;26.50;43.70;;;;;;5169355;27;20652;-69
2023/09/23 09:08:18;;;;;;;0.40;0.40;;;26.80;42.50;;;;;;5165698;27;20094;-68
2023/09/23 09:10:44;;;;;;;1.42;0.93;;;27.00;41.90;;;;;;5165299;27;20078;-68
2023/09/23 09:13:10;;;;;;;0.45;0.45;;;27.20;40.30;;;;;;5175661;27;20247;-68
2023/09/23 09:15:39;;;;;;;0.50;0.50;;;27.10;39.80;;;;;;5171184;27;20440;-68
2023/09/23 09:18:05;;;;;;;0.50;0.50;;;27.00;39.60;;;;;;5172500;27;20470;-68
2023/09/23 09:20:31;;;;;;;0.50;0.50;;;26.80;39.40;;;;;;5172725;27;20034;-69
2023/09/23 09:22:57;;;;;;;0.50;0.50;;;26.60;39.80;;;;;;5162344;27;20022;-69
2023/09/23 09:25:23;;;;;;;0.40;0.40;;;26.40;40.60;;;;;;5167372;27;20052;-69
2023/09/23 09:27:50;;;;;;;0.50;0.50;;;26.40;40.20;;;;;;5178375;27;20037;-68
2023/09/23 09:30:16;;;;;;;0.73;0.73;;;26.40;41.60;;;;;;5176464;27;20494;-69
2023/09/23 09:32:44;;;;;;;0.60;0.60;;;26.70;41.10;;;;;;5178576;27;20029;-69
2023/09/23 09:35:17;;;;;;;0.82;0.82;;;26.70;39.90;;;;;;5180243;27;20497;-69
2023/09/23 09:37:45;;;;;;;1.33;0.90;;;26.70;39.70;;;;;;5167198;27;20442;-68
2023/09/23 09:40:23;;;;;;;0.47;0.47;;;26.50;40.40;;;;;;5175724;27;20022;-68
2023/09/23 09:42:54;;;;;;;0.40;0.40;;;26.40;39.00;;;;;;5175586;27;20105;-68
2023/09/23 09:45:19;;;;;;;;;;;26.00;39.30;;;;;;5176617;27;20025;-67
2023/09/23 09:47:47;;;;;;;0.50;0.50;;;25.70;39.80;;;;;;5175812;27;19914;-68
2023/09/23 09:50:14;;;;;;;0.40;0.40;;;25.40;40.80;;;;;;5172887;27;20431;-68
2023/09/23 09:52:43;;;;;;;0.40;0.40;;;25.30;41.60;;;;;;5175732;27;20026;-68
2023/09/23 09:55:14;;;;;;;0.65;0.63;;;25.30;42.10;;;;;;5175179;27;20072;-68
2023/09/23 09:57:41;;;;;;;0.50;0.50;;;25.30;41.50;;;;;;5175184;27;20035;-68
2023/09/23 10:00:15;;;;;;;0.50;0.50;;;25.20;41.40;;;;;;5174272;27;20432;-67
2023/09/23 10:02:42;;;;;;;0.60;0.60;;;25.10;41.80;;;;;;5176193;27;20026;-67
2023/09/23 10:05:14;;;;;;;0.50;0.50;;;25.00;41.90;;;;;;5165004;27;20083;-68
2023/09/23 10:07:55;;;;;;;0.60;0.55;;;24.80;41.80;;;;;;5157077;27;20027;-69
2023/09/23 10:10:34;;;;;;;0.90;0.85;;;24.60;42.20;;;;;;5173423;27;20491;-68
2023/09/23 10:13:13;;;;;;;0.60;0.60;;;24.40;42.80;;;;;;5176198;27;20033;-67
2023/09/23 10:15:40;;;;;;;1.15;0.85;;;24.20;43.20;;;;;;5174224;27;20030;-68
2023/09/23 10:18:13;;;;;;;0.40;0.40;;;24.10;43.60;;;;;;5175846;27;20034;-67
2023/09/23 10:20:54;;;;;;;0.95;0.57;;;23.90;44.00;;;;;;5172135;27;20018;-67
2023/09/23 10:23:21;;;;;;;1.40;0.55;;;23.90;44.30;;;;;;5165538;27;20113;-67
2023/09/23 10:25:51;;;;;;;0.60;0.45;;;23.90;44.60;;;;;;5173770;27;20466;-69
2023/09/23 10:28:24;;;;;;;;;;;24.00;44.80;;;;;;5176401;27;20367;-68
2023/09/23 10:31:03;;;;;;;0.52;0.52;;;24.10;44.80;;;;;;5172036;27;19958;-68
2023/09/23 10:33:31;;;;;;;0.68;0.68;;;24.20;45.00;;;;;;5175542;27;20378;-68
2023/09/23 10:35:57;;;;;;;0.45;0.45;;;24.40;45.00;;;;;;5175652;27;20453;-67
2023/09/23 10:38:24;;;;;;;2.22;2.05;;;24.70;45.10;;;;;;5173830;27;20105;-67
2023/09/23 10:40:52;;;;;;;0.60;0.60;;;25.10;45.00;;;;;;5174604;27;20045;-68
2023/09/23 10:43:18;;;;;;;0.60;0.60;;;25.40;43.80;;;;;;5175500;27;20060;-68
2023/09/23 10:45:44;;;;;;;0.50;0.50;;;25.60;43.20;;;;;;5174724;27;20018;-68
2023/09/23 10:48:09;;;;;;;1.13;0.98;;;25.70;42.00;;;;;;5175444;27;20030;-67
2023/09/23 10:50:35;;;;;;;0.50;0.50;;;25.60;41.60;;;;;;5174682;27;20113;-68
2023/09/23 10:53:01;;;;;;;0.50;0.50;;;25.60;42.10;;;;;;5175310;27;20030;-68
2023/09/23 10:55:26;;;;;;;0.63;0.63;;;25.80;42.10;;;;;;5173983;27;20075;-68
2023/09/23 10:57:53;;;;;;;0.50;0.50;;;26.10;41.50;;;;;;5174073;27;20029;-68
2023/09/23 11:00:20;;;;;;;0.60;0.60;;;26.50;41.70;;;;;;5174436;27;20018;-69
2023/09/23 11:02:54;;;;;;;0.60;0.60;;;26.80;41.50;;;;;;5173622;27;20026;-68
2023/09/23 11:05:24;;;;;;;0.82;0.82;;;27.10;40.90;;;;;;5175271;27;20025;-67
2023/09/23 11:07:54;;;;;;;0.75;0.75;;;27.40;40.00;;;;;;5173823;27;20147;-68
2023/09/23 11:10:22;;;;;;;0.50;0.50;;;27.80;39.80;;;;;;5174184;27;20023;-68
2023/09/23 11:12:47;;;;;;;0.60;0.60;;;27.90;39.20;;;;;;5173705;27;20401;-68
2023/09/23 11:15:13;;;;;;;8.82;1.30;;;28.20;38.60;;;;;;5174923;27;20026;-68
2023/09/23 11:17:41;;;;;;;0.77;0.77;;;28.30;38.30;;;;;;5174754;27;20034;-68
2023/09/23 11:20:10;;;;;;;0.70;0.70;;;28.40;36.50;;;;;;5173680;27;20520;-68
2023/09/23 11:22:37;;;;;;;0.63;0.63;;;28.50;37.40;;;;;;5171774;27;20473;-67
2023/09/23 11:25:09;;;;;;;0.57;0.57;;;28.70;36.50;;;;;;5164684;27;20061;-67
2023/09/23 11:27:35;;;;;;;0.60;0.60;;;28.60;35.90;;;;;;5173531;27;20050;-67
2023/09/23 11:30:01;;;;;;;3.60;1.20;;;28.50;36.10;;;;;;5174333;27;20778;-68
2023/09/23 11:32:27;;;;;;;0.47;0.47;;;28.30;35.70;;;;;;5172425;27;20022;-68
2023/09/23 11:34:53;;;;;;;0.60;0.60;;;28.00;35.90;;;;;;5172947;27;20030;-68
2023/09/23 11:37:23;;;;;;;0.60;0.60;;;27.80;36.20;;;;;;5173843;27;20030;-70
2023/09/23 11:39:49;;;;;;;0.60;0.60;;;27.40;36.60;;;;;;5174292;27;20030;-69
2023/09/23 11:42:15;;;;;;;1.00;0.75;;;27.30;37.40;;;;;;5173352;27;20360;-69
2023/09/23 11:44:40;;;;;;;0.50;0.50;;;27.40;37.80;;;;;;5174540;27;20033;-68
2023/09/23 11:47:06;;;;;;;0.70;0.70;;;27.60;37.90;;;;;;5173335;27;20030;-68
2023/09/23 11:49:32;;;;;;;0.50;0.50;;;27.80;38.10;;;;;;5173312;27;20026;-69
2023/09/23 11:51:59;;;;;;;0.50;0.50;;;28.10;37.80;;;;;;5174305;27;20042;-69
2023/09/23 11:54:24;;;;;;;0.40;0.40;;;28.20;36.20;;;;;;5172776;27;20105;-69
2023/09/23 11:56:50;;;;;;;0.30;0.30;;;28.00;35.90;;;;;;5174364;27;20110;-69
2023/09/23 11:59:20;;;;;;;0.60;0.60;;;27.70;35.60;;;;;;5172969;27;20069;-68
2023/09/23 12:01:47;;;;;;;0.50;0.50;;;27.40;35.60;;;;;;5174227;27;20090;-69
2023/09/23 12:04:13;;;;;;;0.40;0.40;;;27.10;36.30;;;;;;5173642;27;20018;-68
2023/09/23 12:06:39;;;;;;;0.55;0.55;;;26.80;36.70;;;;;;5154436;27;20027;-68
2023/09/23 12:09:09;;;;;;;0.60;0.60;;;26.70;37.70;;;;;;5173032;27;20488;-68
2023/09/23 12:11:35;;;;;;;0.60;0.60;;;26.70;37.90;;;;;;5172906;27;20054;-68
2023/09/23 12:14:01;;;;;;;0.55;0.55;;;26.70;38.10;;;;;;5172157;27;20343;-68
2023/09/23 12:16:26;;;;;;;0.60;0.60;;;26.70;38.40;;;;;;5159817;27;20031;-70
2023/09/23 12:18:52;;;;;;;2.45;0.73;;;26.80;38.50;;;;;;5173377;27;20074;-68
2023/09/23 12:21:17;;;;;;;0.50;0.50;;;26.70;37.90;;;;;;5173178;27;20030;-68
2023/09/23 12:23:43;;;;;;;0.82;0.82;;;26.70;38.10;;;;;;5174171;27;20022;-69
2023/09/23 12:26:09;;;;;;;0.40;0.40;;;27.00;38.20;;;;;;5163167;27;20037;-68
2023/09/23 12:28:36;;;;;;;0.50;0.50;;;27.20;38.40;;;;;;5153305;27;20489;-69
2023/09/23 12:31:02;;;;;;;0.40;0.40;;;27.50;37.90;;;;;;5152795;27;20083;-68
2023/09/23 12:33:28;;;;;;;0.40;0.40;;;27.70;36.70;;;;;;5172985;27;20053;-68
2023/09/23 12:35:53;;;;;;;0.60;0.60;;;27.70;36.30;;;;;;5165066;27;20514;-68
2023/09/23 12:38:19;;;;;;;0.40;0.40;;;27.60;36.40;;;;;;5165404;27;20135;-68
2023/09/23 12:40:44;;;;;;;0.43;0.43;;;27.60;36.70;;;;;;5173610;27;20049;-68
2023/09/23 12:43:11;;;;;;;0.40;0.40;;;27.40;36.70;;;;;;5172762;27;20364;-68
2023/09/23 12:45:40;;;;;;;0.65;0.65;;;27.30;36.70;;;;;;5172379;27;20018;-68
2023/09/23 12:48:07;;;;;;;0.50;0.50;;;27.10;36.10;;;;;;5178525;27;20030;-70